sensor_id;sensor_type;location;lat;lon;timestamp;pressure;altitude;pressure_sealevel;temperature;humidity
48095;BME280;33874;52.070;-0.516;2023-02-12T00:01:24;103411.20;;;7.97;72.50
48095;BME280;33874;52.070;-0.516;2023-02-12T00:03:53;103406.92;;;7.99;72.48
48095;BME280;33874;52.070;-0.516;2023-02-12T00:06:22;103405.02;;;7.99;72.26
48095;BME280;33874;52.070;-0.516;2023-02-12T00:08:52;103407.73;;;7.96;72.29
48095;BME280;33874;52.070;-0.516;2023-02-12T00:11:25;103410.43;;;7.93;72.23
48095;BME280;33874;52.070;-0.516;2023-02-12T00:13:54;103414.86;;;7.92;72.36
48095;BME280;33874;52.070;-0.516;2023-02-12T00:16:26;103411.02;;;7.91;72.48
48095;BME280;33874;52.070;-0.516;2023-02-12T00:18:56;103408.25;;;7.91;72.35
48095;BME280;33874;52.070;-0.516;2023-02-12T00:21:25;103411.59;;;7.90;72.49
48095;BME280;33874;52.070;-0.516;2023-02-12T00:23:55;103405.98;;;7.91;72.59
48095;BME280;33874;52.070;-0.516;2023-02-12T00:26:24;103396.02;;;7.90;72.17
48095;BME280;33874;52.070;-0.516;2023-02-12T00:28:52;103402.38;;;7.87;72.52
48095;BME280;33874;52.070;-0.516;2023-02-12T00:31:23;103411.46;;;7.88;72.69
48095;BME280;33874;52.070;-0.516;2023-02-12T00:33:52;103406.85;;;7.90;72.60
48095;BME280;33874;52.070;-0.516;2023-02-12T00:36:24;103397.95;;;7.89;72.49
48095;BME280;33874;52.070;-0.516;2023-02-12T00:38:53;103398.21;;;7.87;72.55
48095;BME280;33874;52.070;-0.516;2023-02-12T00:41:22;103405.67;;;7.83;72.30
48095;BME280;33874;52.070;-0.516;2023-02-12T00:43:50;103407.90;;;7.79;72.44
48095;BME280;33874;52.070;-0.516;2023-02-12T00:46:18;103407.95;;;7.77;72.68
48095;BME280;33874;52.070;-0.516;2023-02-12T00:48:46;103411.80;;;7.77;72.85
48095;BME280;33874;52.070;-0.516;2023-02-12T00:51:15;103415.13;;;7.77;72.89
48095;BME280;33874;52.070;-0.516;2023-02-12T00:53:43;103413.19;;;7.78;72.81
48095;BME280;33874;52.070;-0.516;2023-02-12T00:56:11;103410.05;;;7.77;72.61
48095;BME280;33874;52.070;-0.516;2023-02-12T00:58:39;103419.11;;;7.74;72.65
48095;BME280;33874;52.070;-0.516;2023-02-12T01:01:07;103414.98;;;7.70;72.42
48095;BME280;33874;52.070;-0.516;2023-02-12T01:03:35;103414.00;;;7.68;72.79
48095;BME280;33874;52.070;-0.516;2023-02-12T01:06:04;103406.63;;;7.69;72.92
48095;BME280;33874;52.070;-0.516;2023-02-12T01:08:32;103408.91;;;7.69;72.88
48095;BME280;33874;52.070;-0.516;2023-02-12T01:11:02;103410.52;;;7.67;72.80
48095;BME280;33874;52.070;-0.516;2023-02-12T01:13:34;103408.67;;;7.65;72.82
48095;BME280;33874;52.070;-0.516;2023-02-12T01:16:16;103406.80;;;7.63;72.64
48095;BME280;33874;52.070;-0.516;2023-02-12T01:18:45;103408.27;;;7.60;72.78
48095;BME280;33874;52.070;-0.516;2023-02-12T01:21:19;103415.73;;;7.58;72.75
48095;BME280;33874;52.070;-0.516;2023-02-12T01:23:48;103410.51;;;7.50;72.61
48095;BME280;33874;52.070;-0.516;2023-02-12T01:26:18;103412.60;;;7.45;72.73
48095;BME280;33874;52.070;-0.516;2023-02-12T01:28:56;103415.23;;;7.45;72.93
48095;BME280;33874;52.070;-0.516;2023-02-12T01:31:27;103413.42;;;7.47;73.33
48095;BME280;33874;52.070;-0.516;2023-02-12T01:33:58;103414.23;;;7.49;73.26
48095;BME280;33874;52.070;-0.516;2023-02-12T01:36:28;103409.23;;;7.47;73.02
48095;BME280;33874;52.070;-0.516;2023-02-12T01:38:57;103407.83;;;7.46;73.05
48095;BME280;33874;52.070;-0.516;2023-02-12T01:41:29;103405.48;;;7.50;73.46
48095;BME280;33874;52.070;-0.516;2023-02-12T01:44:20;103406.08;;;7.52;73.60
48095;BME280;33874;52.070;-0.516;2023-02-12T01:47:03;103403.70;;;7.56;73.65
48095;BME280;33874;52.070;-0.516;2023-02-12T01:49:35;103407.12;;;7.59;73.60
48095;BME280;33874;52.070;-0.516;2023-02-12T01:52:27;103407.61;;;7.60;73.52
48095;BME280;33874;52.070;-0.516;2023-02-12T01:55:00;103405.10;;;7.56;73.21
48095;BME280;33874;52.070;-0.516;2023-02-12T01:57:32;103406.17;;;7.50;73.05
48095;BME280;33874;52.070;-0.516;2023-02-12T02:00:03;103407.14;;;7.46;73.16
48095;BME280;33874;52.070;-0.516;2023-02-12T02:02:33;103411.68;;;7.46;73.15
48095;BME280;33874;52.070;-0.516;2023-02-12T02:05:03;103411.71;;;7.45;73.25
48095;BME280;33874;52.070;-0.516;2023-02-12T02:07:31;103408.90;;;7.46;73.49
48095;BME280;33874;52.070;-0.516;2023-02-12T02:10:00;103410.34;;;7.51;73.66
48095;BME280;33874;52.070;-0.516;2023-02-12T02:12:30;103410.27;;;7.53;73.49
48095;BME280;33874;52.070;-0.516;2023-02-12T02:15:17;103412.84;;;7.49;73.31
48095;BME280;33874;52.070;-0.516;2023-02-12T02:17:56;103416.40;;;7.47;73.42
48095;BME280;33874;52.070;-0.516;2023-02-12T02:26:15;103410.34;;;7.51;73.74
48095;BME280;33874;52.070;-0.516;2023-02-12T02:31:38;103403.42;;;7.53;73.91
48095;BME280;33874;52.070;-0.516;2023-02-12T02:37:13;103403.14;;;7.57;74.04
48095;BME280;33874;52.070;-0.516;2023-02-12T02:39:49;103397.82;;;7.59;74.16
48095;BME280;33874;52.070;-0.516;2023-02-12T02:42:43;103398.12;;;7.61;74.07
48095;BME280;33874;52.070;-0.516;2023-02-12T02:48:11;103396.27;;;7.58;73.80
48095;BME280;33874;52.070;-0.516;2023-02-12T02:50:45;103393.14;;;7.58;73.72
48095;BME280;33874;52.070;-0.516;2023-02-12T02:53:31;103399.21;;;7.54;73.57
48095;BME280;33874;52.070;-0.516;2023-02-12T02:56:02;103397.65;;;7.48;73.41
48095;BME280;33874;52.070;-0.516;2023-02-12T02:58:52;103399.26;;;7.41;73.55
48095;BME280;33874;52.070;-0.516;2023-02-12T03:01:31;103392.09;;;7.35;73.15
48095;BME280;33874;52.070;-0.516;2023-02-12T03:04:07;103396.73;;;7.31;73.71
48095;BME280;33874;52.070;-0.516;2023-02-12T03:06:45;103394.86;;;7.30;73.67
48095;BME280;33874;52.070;-0.516;2023-02-12T03:09:32;103399.84;;;7.26;73.51
48095;BME280;33874;52.070;-0.516;2023-02-12T03:12:09;103392.25;;;7.22;73.64
48095;BME280;33874;52.070;-0.516;2023-02-12T03:14:58;103386.84;;;7.22;73.85
48095;BME280;33874;52.070;-0.516;2023-02-12T03:17:33;103385.89;;;7.25;73.91
48095;BME280;33874;52.070;-0.516;2023-02-12T03:20:08;103391.61;;;7.27;74.07
48095;BME280;33874;52.070;-0.516;2023-02-12T03:22:43;103388.33;;;7.31;74.36
48095;BME280;33874;52.070;-0.516;2023-02-12T03:25:24;103386.34;;;7.34;74.43
48095;BME280;33874;52.070;-0.516;2023-02-12T03:28:10;103388.92;;;7.35;74.33
48095;BME280;33874;52.070;-0.516;2023-02-12T03:30:56;103391.36;;;7.36;74.20
48095;BME280;33874;52.070;-0.516;2023-02-12T03:33:57;103392.26;;;7.35;74.33
48095;BME280;33874;52.070;-0.516;2023-02-12T03:36:52;103389.11;;;7.34;74.13
48095;BME280;33874;52.070;-0.516;2023-02-12T03:39:44;103388.23;;;7.28;74.06
48095;BME280;33874;52.070;-0.516;2023-02-12T03:42:21;103388.02;;;7.24;74.10
48095;BME280;33874;52.070;-0.516;2023-02-12T03:45:00;103386.35;;;7.20;74.09
48095;BME280;33874;52.070;-0.516;2023-02-12T03:47:48;103392.29;;;7.21;74.26
48095;BME280;33874;52.070;-0.516;2023-02-12T03:50:27;103392.42;;;7.22;74.37
48095;BME280;33874;52.070;-0.516;2023-02-12T03:52:59;103385.81;;;7.21;74.18
48095;BME280;33874;52.070;-0.516;2023-02-12T03:55:28;103386.37;;;7.20;74.29
48095;BME280;33874;52.070;-0.516;2023-02-12T03:58:00;103392.27;;;7.22;74.58
48095;BME280;33874;52.070;-0.516;2023-02-12T04:00:29;103391.99;;;7.25;74.87
48095;BME280;33874;52.070;-0.516;2023-02-12T04:02:57;103394.52;;;7.29;74.85
48095;BME280;33874;52.070;-0.516;2023-02-12T04:05:26;103394.27;;;7.31;74.82
48095;BME280;33874;52.070;-0.516;2023-02-12T04:07:56;103394.18;;;7.29;74.51
48095;BME280;33874;52.070;-0.516;2023-02-12T04:13:31;103391.08;;;7.20;74.36
48095;BME280;33874;52.070;-0.516;2023-02-12T04:16:21;103396.06;;;7.17;74.35
48095;BME280;33874;52.070;-0.516;2023-02-12T04:18:52;103402.11;;;7.14;74.63
48095;BME280;33874;52.070;-0.516;2023-02-12T04:21:42;103398.23;;;7.15;74.81
48095;BME280;33874;52.070;-0.516;2023-02-12T04:29:46;103397.05;;;7.14;74.82
48095;BME280;33874;52.070;-0.516;2023-02-12T04:32:23;103402.61;;;7.15;74.54
48095;BME280;33874;52.070;-0.516;2023-02-12T04:35:06;103401.64;;;7.12;74.61
48095;BME280;33874;52.070;-0.516;2023-02-12T04:37:47;103407.65;;;7.10;74.49
48095;BME280;33874;52.070;-0.516;2023-02-12T04:40:18;103404.23;;;7.07;74.36
48095;BME280;33874;52.070;-0.516;2023-02-12T04:42:48;103405.02;;;7.04;74.38
48095;BME280;33874;52.070;-0.516;2023-02-12T04:45:20;103405.82;;;7.00;74.56
48095;BME280;33874;52.070;-0.516;2023-02-12T04:47:49;103407.23;;;7.00;74.64
48095;BME280;33874;52.070;-0.516;2023-02-12T04:50:17;103406.86;;;7.01;74.90
48095;BME280;33874;52.070;-0.516;2023-02-12T04:52:45;103405.99;;;7.00;74.83
48095;BME280;33874;52.070;-0.516;2023-02-12T04:55:13;103407.61;;;6.98;74.77
48095;BME280;33874;52.070;-0.516;2023-02-12T04:57:41;103408.14;;;6.98;74.62
48095;BME280;33874;52.070;-0.516;2023-02-12T05:00:10;103408.30;;;6.99;75.05
48095;BME280;33874;52.070;-0.516;2023-02-12T05:02:39;103407.86;;;7.02;75.15
48095;BME280;33874;52.070;-0.516;2023-02-12T05:05:07;103411.56;;;7.08;75.35
48095;BME280;33874;52.070;-0.516;2023-02-12T05:07:34;103408.11;;;7.13;75.69
48095;BME280;33874;52.070;-0.516;2023-02-12T05:10:03;103411.80;;;7.18;75.46
48095;BME280;33874;52.070;-0.516;2023-02-12T05:12:31;103409.45;;;7.21;75.58
48095;BME280;33874;52.070;-0.516;2023-02-12T05:14:59;103409.38;;;7.23;75.45
48095;BME280;33874;52.070;-0.516;2023-02-12T05:17:27;103410.19;;;7.26;75.53
48095;BME280;33874;52.070;-0.516;2023-02-12T05:19:54;103408.10;;;7.25;75.13
48095;BME280;33874;52.070;-0.516;2023-02-12T05:22:22;103403.48;;;7.21;75.08
48095;BME280;33874;52.070;-0.516;2023-02-12T05:24:50;103397.02;;;7.15;74.82
48095;BME280;33874;52.070;-0.516;2023-02-12T05:27:18;103399.30;;;7.08;74.80
48095;BME280;33874;52.070;-0.516;2023-02-12T05:29:45;103402.71;;;7.05;74.84
48095;BME280;33874;52.070;-0.516;2023-02-12T05:32:13;103398.64;;;7.00;74.88
48095;BME280;33874;52.070;-0.516;2023-02-12T05:34:41;103395.93;;;6.97;74.97
48095;BME280;33874;52.070;-0.516;2023-02-12T05:37:09;103397.23;;;6.95;75.03
48095;BME280;33874;52.070;-0.516;2023-02-12T05:39:37;103398.52;;;6.92;75.05
48095;BME280;33874;52.070;-0.516;2023-02-12T05:42:05;103396.16;;;6.89;75.06
48095;BME280;33874;52.070;-0.516;2023-02-12T05:44:34;103399.85;;;6.89;75.27
48095;BME280;33874;52.070;-0.516;2023-02-12T05:47:02;103402.27;;;6.90;75.48
48095;BME280;33874;52.070;-0.516;2023-02-12T05:49:29;103399.83;;;6.89;75.17
48095;BME280;33874;52.070;-0.516;2023-02-12T05:51:57;103393.80;;;6.85;75.16
48095;BME280;33874;52.070;-0.516;2023-02-12T05:54:26;103389.23;;;6.80;75.00
48095;BME280;33874;52.070;-0.516;2023-02-12T05:56:54;103387.79;;;6.75;74.98
48095;BME280;33874;52.070;-0.516;2023-02-12T05:59:22;103386.52;;;6.70;74.84
48095;BME280;33874;52.070;-0.516;2023-02-12T06:01:50;103388.33;;;6.68;75.13
48095;BME280;33874;52.070;-0.516;2023-02-12T06:04:19;103385.84;;;6.69;75.48
48095;BME280;33874;52.070;-0.516;2023-02-12T06:06:48;103387.66;;;6.74;75.80
48095;BME280;33874;52.070;-0.516;2023-02-12T06:09:17;103386.09;;;6.80;75.95
48095;BME280;33874;52.070;-0.516;2023-02-12T06:11:45;103388.55;;;6.86;76.03
48095;BME280;33874;52.070;-0.516;2023-02-12T06:14:14;103389.64;;;6.91;76.18
48095;BME280;33874;52.070;-0.516;2023-02-12T06:16:46;103386.55;;;6.96;76.25
48095;BME280;33874;52.070;-0.516;2023-02-12T06:19:15;103390.65;;;6.99;76.08
48095;BME280;33874;52.070;-0.516;2023-02-12T06:21:43;103390.39;;;7.02;76.11
48095;BME280;33874;52.070;-0.516;2023-02-12T06:24:11;103390.18;;;7.03;76.07
48095;BME280;33874;52.070;-0.516;2023-02-12T06:26:40;103388.96;;;7.02;75.86
48095;BME280;33874;52.070;-0.516;2023-02-12T06:29:07;103386.36;;;7.02;75.90
48095;BME280;33874;52.070;-0.516;2023-02-12T06:31:36;103385.15;;;7.02;75.88
48095;BME280;33874;52.070;-0.516;2023-02-12T06:34:05;103383.59;;;7.01;75.79
48095;BME280;33874;52.070;-0.516;2023-02-12T06:36:34;103385.90;;;6.99;75.73
48095;BME280;33874;52.070;-0.516;2023-02-12T06:39:03;103390.04;;;6.96;75.46
48095;BME280;33874;52.070;-0.516;2023-02-12T06:41:31;103393.29;;;6.91;75.40
48095;BME280;33874;52.070;-0.516;2023-02-12T06:43:58;103396.39;;;6.87;75.27
48095;BME280;33874;52.070;-0.516;2023-02-12T06:46:27;103394.59;;;6.83;75.44
48095;BME280;33874;52.070;-0.516;2023-02-12T06:48:55;103393.41;;;6.81;75.32
48095;BME280;33874;52.070;-0.516;2023-02-12T06:51:24;103392.41;;;6.79;75.65
48095;BME280;33874;52.070;-0.516;2023-02-12T06:53:53;103396.27;;;6.79;75.77
48095;BME280;33874;52.070;-0.516;2023-02-12T06:56:22;103389.97;;;6.79;75.98
48095;BME280;33874;52.070;-0.516;2023-02-12T06:58:54;103386.67;;;6.78;75.66
48095;BME280;33874;52.070;-0.516;2023-02-12T07:01:24;103392.55;;;6.73;75.53
48095;BME280;33874;52.070;-0.516;2023-02-12T07:03:56;103395.42;;;6.71;75.52
48095;BME280;33874;52.070;-0.516;2023-02-12T07:06:25;103388.98;;;6.69;75.64
48095;BME280;33874;52.070;-0.516;2023-02-12T07:08:54;103389.46;;;6.71;76.10
48095;BME280;33874;52.070;-0.516;2023-02-12T07:11:23;103390.48;;;6.72;76.13
48095;BME280;33874;52.070;-0.516;2023-02-12T07:13:51;103396.52;;;6.76;76.30
48095;BME280;33874;52.070;-0.516;2023-02-12T07:16:19;103399.94;;;6.79;76.32
48095;BME280;33874;52.070;-0.516;2023-02-12T07:18:47;103401.63;;;6.81;76.18
48095;BME280;33874;52.070;-0.516;2023-02-12T07:21:15;103404.77;;;6.80;76.18
48095;BME280;33874;52.070;-0.516;2023-02-12T07:23:47;103401.46;;;6.80;76.15
48095;BME280;33874;52.070;-0.516;2023-02-12T07:26:18;103404.83;;;6.79;76.08
48095;BME280;33874;52.070;-0.516;2023-02-12T07:28:47;103404.99;;;6.79;76.06
48095;BME280;33874;52.070;-0.516;2023-02-12T07:31:16;103401.87;;;6.79;76.00
48095;BME280;33874;52.070;-0.516;2023-02-12T07:33:45;103401.20;;;6.77;75.99
48095;BME280;33874;52.070;-0.516;2023-02-12T07:36:17;103409.35;;;6.73;75.83
48095;BME280;33874;52.070;-0.516;2023-02-12T07:38:46;103413.41;;;6.71;75.95
48095;BME280;33874;52.070;-0.516;2023-02-12T07:41:16;103413.96;;;6.70;75.82
48095;BME280;33874;52.070;-0.516;2023-02-12T07:43:45;103409.25;;;6.69;76.02
48095;BME280;33874;52.070;-0.516;2023-02-12T07:46:17;103417.19;;;6.67;75.90
48095;BME280;33874;52.070;-0.516;2023-02-12T07:48:46;103421.27;;;6.65;75.80
48095;BME280;33874;52.070;-0.516;2023-02-12T07:51:15;103420.96;;;6.63;75.83
48095;BME280;33874;52.070;-0.516;2023-02-12T07:53:46;103418.91;;;6.61;75.77
48095;BME280;33874;52.070;-0.516;2023-02-12T07:58:43;103426.34;;;6.65;76.30
48095;BME280;33874;52.070;-0.516;2023-02-12T08:01:15;103421.19;;;6.68;76.53
48095;BME280;33874;52.070;-0.516;2023-02-12T08:03:44;103422.13;;;6.72;76.56
48095;BME280;33874;52.070;-0.516;2023-02-12T08:06:16;103425.17;;;6.77;76.27
48095;BME280;33874;52.070;-0.516;2023-02-12T08:08:45;103425.05;;;6.81;76.48
48095;BME280;33874;52.070;-0.516;2023-02-12T08:11:13;103423.58;;;6.84;76.07
48095;BME280;33874;52.070;-0.516;2023-02-12T08:13:41;103427.34;;;6.87;76.41
48095;BME280;33874;52.070;-0.516;2023-02-12T08:16:13;103430.05;;;6.90;76.26
48095;BME280;33874;52.070;-0.516;2023-02-12T08:18:42;103430.30;;;6.94;76.48
48095;BME280;33874;52.070;-0.516;2023-02-12T08:23:38;103430.46;;;7.00;76.40
48095;BME280;33874;52.070;-0.516;2023-02-12T08:28:34;103435.52;;;7.07;76.23
48095;BME280;33874;52.070;-0.516;2023-02-12T08:31:07;103435.59;;;7.11;76.21
48095;BME280;33874;52.070;-0.516;2023-02-12T08:33:35;103436.05;;;7.14;76.16
48095;BME280;33874;52.070;-0.516;2023-02-12T08:36:05;103438.80;;;7.15;75.84
48095;BME280;33874;52.070;-0.516;2023-02-12T08:38:33;103440.17;;;7.16;75.55
48095;BME280;33874;52.070;-0.516;2023-02-12T08:41:02;103445.37;;;7.18;75.48
48095;BME280;33874;52.070;-0.516;2023-02-12T08:43:33;103435.31;;;7.21;75.43
48095;BME280;33874;52.070;-0.516;2023-02-12T08:46:13;103433.59;;;7.27;75.48
48095;BME280;33874;52.070;-0.516;2023-02-12T08:48:41;103435.20;;;7.32;75.23
48095;BME280;33874;52.070;-0.516;2023-02-12T08:53:38;103429.73;;;7.39;74.80
48095;BME280;33874;52.070;-0.516;2023-02-12T08:56:06;103430.20;;;7.41;74.75
48095;BME280;33874;52.070;-0.516;2023-02-12T08:58:34;103435.55;;;7.44;74.48
48095;BME280;33874;52.070;-0.516;2023-02-12T09:01:03;103436.01;;;7.46;74.66
48095;BME280;33874;52.070;-0.516;2023-02-12T09:03:31;103433.33;;;7.48;74.41
48095;BME280;33874;52.070;-0.516;2023-02-12T09:06:03;103431.69;;;7.51;74.27
48095;BME280;33874;52.070;-0.516;2023-02-12T09:08:31;103438.13;;;7.52;74.29
48095;BME280;33874;52.070;-0.516;2023-02-12T09:10:59;103434.92;;;7.54;74.21
48095;BME280;33874;52.070;-0.516;2023-02-12T09:13:31;103439.95;;;7.55;73.95
48095;BME280;33874;52.070;-0.516;2023-02-12T09:15:59;103438.82;;;7.58;73.78
48095;BME280;33874;52.070;-0.516;2023-02-12T09:18:28;103438.21;;;7.60;73.67
48095;BME280;33874;52.070;-0.516;2023-02-12T09:21:03;103442.52;;;7.63;73.58
48095;BME280;33874;52.070;-0.516;2023-02-12T09:23:31;103443.83;;;7.66;73.64
48095;BME280;33874;52.070;-0.516;2023-02-12T09:26:02;103444.91;;;7.70;73.48
48095;BME280;33874;52.070;-0.516;2023-02-12T09:28:30;103435.73;;;7.74;73.31
48095;BME280;33874;52.070;-0.516;2023-02-12T09:31:03;103430.02;;;7.77;73.10
48095;BME280;33874;52.070;-0.516;2023-02-12T09:33:31;103432.81;;;7.83;73.06
48095;BME280;33874;52.070;-0.516;2023-02-12T09:36:04;103432.33;;;7.87;73.13
48095;BME280;33874;52.070;-0.516;2023-02-12T09:38:32;103431.16;;;7.91;72.92
48095;BME280;33874;52.070;-0.516;2023-02-12T09:43:50;103430.04;;;7.99;72.86
48095;BME280;33874;52.070;-0.516;2023-02-12T09:46:24;103429.68;;;8.05;72.84
48095;BME280;33874;52.070;-0.516;2023-02-12T09:51:31;103432.97;;;8.17;72.70
48095;BME280;33874;52.070;-0.516;2023-02-12T09:54:22;103433.35;;;8.22;72.75
48095;BME280;33874;52.070;-0.516;2023-02-12T09:56:48;103437.48;;;8.24;72.49
48095;BME280;33874;52.070;-0.516;2023-02-12T10:01:52;103426.45;;;8.29;72.51
48095;BME280;33874;52.070;-0.516;2023-02-12T10:04:20;103427.02;;;8.33;72.21
48095;BME280;33874;52.070;-0.516;2023-02-12T10:21:15;103428.23;;;8.51;71.59
48095;BME280;33874;52.070;-0.516;2023-02-12T10:26:39;103425.78;;;8.61;71.41
48095;BME280;33874;52.070;-0.516;2023-02-12T10:29:19;103426.80;;;8.67;71.35
48095;BME280;33874;52.070;-0.516;2023-02-12T10:31:54;103424.52;;;8.72;71.31
48095;BME280;33874;52.070;-0.516;2023-02-12T10:34:35;103424.94;;;8.75;71.10
48095;BME280;33874;52.070;-0.516;2023-02-12T10:37:39;103424.80;;;8.79;71.09
48095;BME280;33874;52.070;-0.516;2023-02-12T10:40:03;103426.59;;;8.83;71.02
48095;BME280;33874;52.070;-0.516;2023-02-12T10:45:02;103435.29;;;8.85;70.87
48095;BME280;33874;52.070;-0.516;2023-02-12T10:47:30;103433.04;;;8.90;70.87
48095;BME280;33874;52.070;-0.516;2023-02-12T10:50:00;103432.58;;;8.93;70.74
48095;BME280;33874;52.070;-0.516;2023-02-12T10:52:32;103440.01;;;8.96;70.81
48095;BME280;33874;52.070;-0.516;2023-02-12T10:55:04;103437.48;;;8.98;70.60
48095;BME280;33874;52.070;-0.516;2023-02-12T10:57:49;103433.08;;;8.98;70.57
48095;BME280;33874;52.070;-0.516;2023-02-12T11:00:25;103435.88;;;8.99;70.46
48095;BME280;33874;52.070;-0.516;2023-02-12T11:05:28;103435.10;;;9.00;70.43
48095;BME280;33874;52.070;-0.516;2023-02-12T11:07:56;103432.40;;;9.03;70.49
48095;BME280;33874;52.070;-0.516;2023-02-12T11:10:29;103430.41;;;9.04;70.47
48095;BME280;33874;52.070;-0.516;2023-02-12T11:12:58;103427.22;;;9.05;70.36
48095;BME280;33874;52.070;-0.516;2023-02-12T11:15:29;103428.52;;;9.03;70.20
48095;BME280;33874;52.070;-0.516;2023-02-12T11:18:00;103423.83;;;9.02;70.10
48095;BME280;33874;52.070;-0.516;2023-02-12T11:20:33;103425.22;;;9.02;70.09
48095;BME280;33874;52.070;-0.516;2023-02-12T11:23:08;103419.83;;;9.06;70.04
48095;BME280;33874;52.070;-0.516;2023-02-12T11:26:06;103413.83;;;9.07;69.90
48095;BME280;33874;52.070;-0.516;2023-02-12T11:28:34;103414.52;;;9.12;69.90
48095;BME280;33874;52.070;-0.516;2023-02-12T11:31:17;103413.23;;;9.19;69.93
48095;BME280;33874;52.070;-0.516;2023-02-12T11:36:36;103404.57;;;9.34;69.66
48095;BME280;33874;52.070;-0.516;2023-02-12T11:39:04;103400.45;;;9.41;69.56
48095;BME280;33874;52.070;-0.516;2023-02-12T11:41:35;103405.18;;;9.51;69.65
48095;BME280;33874;52.070;-0.516;2023-02-12T11:44:11;103407.13;;;9.59;69.68
48095;BME280;33874;52.070;-0.516;2023-02-12T11:46:40;103406.94;;;9.64;69.38
48095;BME280;33874;52.070;-0.516;2023-02-12T11:49:22;103403.88;;;9.67;69.13
48095;BME280;33874;52.070;-0.516;2023-02-12T11:51:50;103401.23;;;9.62;68.81
48095;BME280;33874;52.070;-0.516;2023-02-12T11:54:21;103400.90;;;9.57;68.73
48095;BME280;33874;52.070;-0.516;2023-02-12T11:56:50;103400.92;;;9.52;68.78
48095;BME280;33874;52.070;-0.516;2023-02-12T12:01:58;103393.06;;;9.51;68.97
48095;BME280;33874;52.070;-0.516;2023-02-12T12:04:29;103395.38;;;9.50;68.95
48095;BME280;33874;52.070;-0.516;2023-02-12T12:07:04;103390.95;;;9.51;68.89
48095;BME280;33874;52.070;-0.516;2023-02-12T12:09:54;103388.06;;;9.53;68.98
48095;BME280;33874;52.070;-0.516;2023-02-12T12:12:30;103384.80;;;9.56;69.02
48095;BME280;33874;52.070;-0.516;2023-02-12T12:15:04;103385.81;;;9.57;69.00
48095;BME280;33874;52.070;-0.516;2023-02-12T12:17:55;103382.14;;;9.56;68.94
48095;BME280;33874;52.070;-0.516;2023-02-12T12:20:55;103382.80;;;9.53;69.08
48095;BME280;33874;52.070;-0.516;2023-02-12T12:23:29;103379.75;;;9.50;69.02
48095;BME280;33874;52.070;-0.516;2023-02-12T12:26:10;103379.77;;;9.45;69.13
48095;BME280;33874;52.070;-0.516;2023-02-12T12:28:41;103381.06;;;9.43;69.16
48095;BME280;33874;52.070;-0.516;2023-02-12T12:31:12;103382.94;;;9.40;69.12
48095;BME280;33874;52.070;-0.516;2023-02-12T12:38:49;103386.23;;;9.36;69.40
48095;BME280;33874;52.070;-0.516;2023-02-12T12:46:49;103374.02;;;9.44;69.74
48095;BME280;33874;52.070;-0.516;2023-02-12T12:49:47;103364.55;;;9.44;69.70
48095;BME280;33874;52.070;-0.516;2023-02-12T13:02:33;103359.13;;;9.34;69.68
48095;BME280;33874;52.070;-0.516;2023-02-12T13:24:04;103332.25;;;9.11;69.91
48095;BME280;33874;52.070;-0.516;2023-02-12T13:29:22;103327.60;;;9.05;69.93
48095;BME280;33874;52.070;-0.516;2023-02-12T13:34:30;103322.23;;;9.03;69.91
48095;BME280;33874;52.070;-0.516;2023-02-12T13:36:59;103321.64;;;9.04;69.99
48095;BME280;33874;52.070;-0.516;2023-02-12T13:39:32;103316.17;;;9.05;69.90
48095;BME280;33874;52.070;-0.516;2023-02-12T13:42:04;103311.36;;;9.07;69.86
48095;BME280;33874;52.070;-0.516;2023-02-12T13:47:10;103310.46;;;9.13;69.77
48095;BME280;33874;52.070;-0.516;2023-02-12T13:49:50;103311.73;;;9.11;69.59
48095;BME280;33874;52.070;-0.516;2023-02-12T13:52:26;103310.04;;;9.10;69.73
48095;BME280;33874;52.070;-0.516;2023-02-12T13:57:35;103317.82;;;9.08;69.89
48095;BME280;33874;52.070;-0.516;2023-02-12T14:00:03;103317.57;;;9.06;69.79
48095;BME280;33874;52.070;-0.516;2023-02-12T14:07:44;103314.73;;;9.02;69.94
48095;BME280;33874;52.070;-0.516;2023-02-12T14:10:21;103309.48;;;9.02;69.95
48095;BME280;33874;52.070;-0.516;2023-02-12T14:12:52;103306.34;;;9.01;70.01
48095;BME280;33874;52.070;-0.516;2023-02-12T14:15:28;103304.46;;;9.00;70.10
48095;BME280;33874;52.070;-0.516;2023-02-12T14:20:29;103303.09;;;8.99;70.03
48095;BME280;33874;52.070;-0.516;2023-02-12T14:27:57;103289.52;;;8.91;69.88
48095;BME280;33874;52.070;-0.516;2023-02-12T14:30:34;103287.92;;;8.87;69.85
48095;BME280;33874;52.070;-0.516;2023-02-12T14:38:02;103283.20;;;8.82;70.12
48095;BME280;33874;52.070;-0.516;2023-02-12T14:46:46;103285.86;;;8.81;70.14
48095;BME280;33874;52.070;-0.516;2023-02-12T14:48:50;103286.02;;;8.82;70.30
48095;BME280;33874;52.070;-0.516;2023-02-12T14:54:00;103278.88;;;8.75;70.15
48095;BME280;33874;52.070;-0.516;2023-02-12T14:56:29;103278.99;;;8.72;70.22
48095;BME280;33874;52.070;-0.516;2023-02-12T14:58:59;103278.23;;;8.69;70.22
48095;BME280;33874;52.070;-0.516;2023-02-12T15:01:33;103275.55;;;8.66;70.36
48095;BME280;33874;52.070;-0.516;2023-02-12T15:04:10;103274.30;;;8.61;70.28
48095;BME280;33874;52.070;-0.516;2023-02-12T15:06:41;103274.77;;;8.58;70.26
48095;BME280;33874;52.070;-0.516;2023-02-12T15:09:20;103267.30;;;8.56;70.25
48095;BME280;33874;52.070;-0.516;2023-02-12T15:11:51;103267.73;;;8.54;70.25
48095;BME280;33874;52.070;-0.516;2023-02-12T15:14:30;103268.98;;;8.53;70.17
48095;BME280;33874;52.070;-0.516;2023-02-12T15:17:09;103265.23;;;8.51;70.09
48095;BME280;33874;52.070;-0.516;2023-02-12T15:19:43;103261.60;;;8.49;70.07
48095;BME280;33874;52.070;-0.516;2023-02-12T15:24:49;103257.98;;;8.52;70.13
48095;BME280;33874;52.070;-0.516;2023-02-12T15:27:18;103254.95;;;8.54;70.14
48095;BME280;33874;52.070;-0.516;2023-02-12T15:29:47;103255.61;;;8.55;70.13
48095;BME280;33874;52.070;-0.516;2023-02-12T15:32:23;103250.75;;;8.54;69.89
48095;BME280;33874;52.070;-0.516;2023-02-12T15:34:53;103252.16;;;8.53;70.00
48095;BME280;33874;52.070;-0.516;2023-02-12T15:37:26;103252.69;;;8.53;69.91
48095;BME280;33874;52.070;-0.516;2023-02-12T15:40:00;103248.50;;;8.53;70.16
48095;BME280;33874;52.070;-0.516;2023-02-12T15:42:31;103243.42;;;8.53;70.02
48095;BME280;33874;52.070;-0.516;2023-02-12T15:45:25;103245.79;;;8.50;69.89